sensor_id;sensor_type;location;lat;lon;timestamp;temperature;humidity
67050;DHT22;53955;52.442;13.284;2023-06-22T00:01:13;25.10;52.20
67050;DHT22;53955;52.442;13.284;2023-06-22T00:03:39;25.10;52.80
67050;DHT22;53955;52.442;13.284;2023-06-22T00:06:06;25.00;53.00
67050;DHT22;53955;52.442;13.284;2023-06-22T00:08:32;25.00;52.90
67050;DHT22;53955;52.442;13.284;2023-06-22T00:10:59;25.00;52.70
67050;DHT22;53955;52.442;13.284;2023-06-22T00:13:25;24.90;52.90
67050;DHT22;53955;52.442;13.284;2023-06-22T00:15:52;25.00;53.10
67050;DHT22;53955;52.442;13.284;2023-06-22T00:18:20;25.00;52.00
67050;DHT22;53955;52.442;13.284;2023-06-22T00:20:47;25.10;52.80
67050;DHT22;53955;52.442;13.284;2023-06-22T00:23:13;25.00;52.90
67050;DHT22;53955;52.442;13.284;2023-06-22T00:25:42;24.90;53.10
67050;DHT22;53955;52.442;13.284;2023-06-22T00:28:09;24.90;52.80
67050;DHT22;53955;52.442;13.284;2023-06-22T00:30:36;24.90;52.70
67050;DHT22;53955;52.442;13.284;2023-06-22T00:33:02;24.90;53.60
67050;DHT22;53955;52.442;13.284;2023-06-22T00:35:32;24.90;53.00
67050;DHT22;53955;52.442;13.284;2023-06-22T00:37:59;24.90;53.00
67050;DHT22;53955;52.442;13.284;2023-06-22T00:40:27;24.80;52.90
67050;DHT22;53955;52.442;13.284;2023-06-22T00:42:54;24.80;53.10
67050;DHT22;53955;52.442;13.284;2023-06-22T00:45:21;24.70;53.60
67050;DHT22;53955;52.442;13.284;2023-06-22T00:47:48;24.70;53.50
67050;DHT22;53955;52.442;13.284;2023-06-22T00:50:20;24.80;53.50
67050;DHT22;53955;52.442;13.284;2023-06-22T00:52:51;24.80;53.20
67050;DHT22;53955;52.442;13.284;2023-06-22T00:55:18;24.80;53.70
67050;DHT22;53955;52.442;13.284;2023-06-22T00:57:46;24.70;54.00
67050;DHT22;53955;52.442;13.284;2023-06-22T01:00:13;24.80;53.80
67050;DHT22;53955;52.442;13.284;2023-06-22T01:02:45;24.80;53.30
67050;DHT22;53955;52.442;13.284;2023-06-22T01:05:12;24.80;53.50
67050;DHT22;53955;52.442;13.284;2023-06-22T01:07:43;24.80;54.00
67050;DHT22;53955;52.442;13.284;2023-06-22T01:10:17;24.80;54.10
67050;DHT22;53955;52.442;13.284;2023-06-22T01:12:51;24.80;53.40
67050;DHT22;53955;52.442;13.284;2023-06-22T01:15:22;24.70;54.10
67050;DHT22;53955;52.442;13.284;2023-06-22T01:17:52;24.70;54.00
67050;DHT22;53955;52.442;13.284;2023-06-22T01:20:20;24.60;54.40
67050;DHT22;53955;52.442;13.284;2023-06-22T01:23:07;24.70;54.10
67050;DHT22;53955;52.442;13.284;2023-06-22T01:25:43;24.70;54.30
67050;DHT22;53955;52.442;13.284;2023-06-22T01:28:20;24.60;54.80
67050;DHT22;53955;52.442;13.284;2023-06-22T01:30:51;24.60;54.40
67050;DHT22;53955;52.442;13.284;2023-06-22T01:33:29;24.60;54.50
67050;DHT22;53955;52.442;13.284;2023-06-22T01:35:58;24.60;55.20
67050;DHT22;53955;52.442;13.284;2023-06-22T01:38:26;24.70;54.40
67050;DHT22;53955;52.442;13.284;2023-06-22T01:40:54;24.70;54.80
67050;DHT22;53955;52.442;13.284;2023-06-22T01:43:26;24.60;55.20
67050;DHT22;53955;52.442;13.284;2023-06-22T01:45:55;24.60;55.30
67050;DHT22;53955;52.442;13.284;2023-06-22T01:48:22;24.60;54.60
67050;DHT22;53955;52.442;13.284;2023-06-22T01:50:51;24.60;55.10
67050;DHT22;53955;52.442;13.284;2023-06-22T01:53:18;24.60;55.10
67050;DHT22;53955;52.442;13.284;2023-06-22T01:55:44;24.60;55.20
67050;DHT22;53955;52.442;13.284;2023-06-22T01:58:11;24.60;55.30
67050;DHT22;53955;52.442;13.284;2023-06-22T02:00:41;24.70;55.20
67050;DHT22;53955;52.442;13.284;2023-06-22T02:03:16;24.70;54.90
67050;DHT22;53955;52.442;13.284;2023-06-22T02:05:49;24.60;55.60
67050;DHT22;53955;52.442;13.284;2023-06-22T02:08:20;24.60;55.30
67050;DHT22;53955;52.442;13.284;2023-06-22T02:10:47;24.70;56.40
67050;DHT22;53955;52.442;13.284;2023-06-22T02:13:14;24.50;55.60
67050;DHT22;53955;52.442;13.284;2023-06-22T02:15:42;24.50;56.30
67050;DHT22;53955;52.442;13.284;2023-06-22T02:18:09;24.50;56.30
67050;DHT22;53955;52.442;13.284;2023-06-22T02:20:38;24.50;56.50
67050;DHT22;53955;52.442;13.284;2023-06-22T02:23:05;24.50;56.90
67050;DHT22;53955;52.442;13.284;2023-06-22T02:25:32;24.40;56.90
67050;DHT22;53955;52.442;13.284;2023-06-22T02:27:58;24.40;57.80
67050;DHT22;53955;52.442;13.284;2023-06-22T02:30:25;24.30;57.10
67050;DHT22;53955;52.442;13.284;2023-06-22T02:32:51;24.40;57.40
67050;DHT22;53955;52.442;13.284;2023-06-22T02:35:24;24.30;57.60
67050;DHT22;53955;52.442;13.284;2023-06-22T02:37:51;24.40;57.80
67050;DHT22;53955;52.442;13.284;2023-06-22T02:40:18;24.30;57.80
67050;DHT22;53955;52.442;13.284;2023-06-22T02:42:45;24.20;58.10
67050;DHT22;53955;52.442;13.284;2023-06-22T02:45:11;24.20;58.80
67050;DHT22;53955;52.442;13.284;2023-06-22T02:47:38;24.10;59.20
67050;DHT22;53955;52.442;13.284;2023-06-22T02:50:05;24.20;59.30
67050;DHT22;53955;52.442;13.284;2023-06-22T02:52:32;24.30;59.50
67050;DHT22;53955;52.442;13.284;2023-06-22T02:55:00;24.30;58.80
67050;DHT22;53955;52.442;13.284;2023-06-22T02:57:27;24.30;59.00
67050;DHT22;53955;52.442;13.284;2023-06-22T02:59:53;24.20;59.50
67050;DHT22;53955;52.442;13.284;2023-06-22T03:02:20;24.10;60.30
67050;DHT22;53955;52.442;13.284;2023-06-22T03:04:47;24.10;60.60
67050;DHT22;53955;52.442;13.284;2023-06-22T03:07:14;24.20;60.00
67050;DHT22;53955;52.442;13.284;2023-06-22T03:09:42;24.20;61.20
67050;DHT22;53955;52.442;13.284;2023-06-22T03:12:10;24.30;60.50
67050;DHT22;53955;52.442;13.284;2023-06-22T03:14:37;24.20;60.90
67050;DHT22;53955;52.442;13.284;2023-06-22T03:17:04;24.00;61.40
67050;DHT22;53955;52.442;13.284;2023-06-22T03:19:31;24.10;60.40
67050;DHT22;53955;52.442;13.284;2023-06-22T03:21:59;24.10;60.80
67050;DHT22;53955;52.442;13.284;2023-06-22T03:24:26;24.10;60.90
67050;DHT22;53955;52.442;13.284;2023-06-22T03:26:55;24.30;60.90
67050;DHT22;53955;52.442;13.284;2023-06-22T03:29:23;24.10;61.20
67050;DHT22;53955;52.442;13.284;2023-06-22T03:31:50;24.20;61.50
67050;DHT22;53955;52.442;13.284;2023-06-22T03:34:17;24.30;60.90
67050;DHT22;53955;52.442;13.284;2023-06-22T03:36:43;24.20;61.10
67050;DHT22;53955;52.442;13.284;2023-06-22T03:39:11;24.20;60.40
67050;DHT22;53955;52.442;13.284;2023-06-22T03:41:38;24.20;60.70
67050;DHT22;53955;52.442;13.284;2023-06-22T03:44:04;24.10;61.30
67050;DHT22;53955;52.442;13.284;2023-06-22T03:46:32;24.20;60.30
67050;DHT22;53955;52.442;13.284;2023-06-22T03:48:59;24.30;60.00
67050;DHT22;53955;52.442;13.284;2023-06-22T03:51:25;24.50;59.60
67050;DHT22;53955;52.442;13.284;2023-06-22T03:53:52;24.40;60.10
67050;DHT22;53955;52.442;13.284;2023-06-22T03:56:18;24.50;59.30
67050;DHT22;53955;52.442;13.284;2023-06-22T03:58:46;24.50;59.60
67050;DHT22;53955;52.442;13.284;2023-06-22T04:01:13;24.60;59.70
67050;DHT22;53955;52.442;13.284;2023-06-22T04:03:41;24.50;59.00
67050;DHT22;53955;52.442;13.284;2023-06-22T04:06:07;24.40;59.40
67050;DHT22;53955;52.442;13.284;2023-06-22T04:08:34;24.20;60.60
67050;DHT22;53955;52.442;13.284;2023-06-22T04:11:01;24.20;59.90
67050;DHT22;53955;52.442;13.284;2023-06-22T04:13:27;24.00;60.40
67050;DHT22;53955;52.442;13.284;2023-06-22T04:15:54;24.10;59.20
67050;DHT22;53955;52.442;13.284;2023-06-22T04:18:20;24.10;59.00
67050;DHT22;53955;52.442;13.284;2023-06-22T04:20:48;24.20;58.20
67050;DHT22;53955;52.442;13.284;2023-06-22T04:23:15;24.20;58.90
67050;DHT22;53955;52.442;13.284;2023-06-22T04:25:41;24.10;58.80
67050;DHT22;53955;52.442;13.284;2023-06-22T04:28:08;24.00;59.00
67050;DHT22;53955;52.442;13.284;2023-06-22T04:30:38;24.00;59.60
67050;DHT22;53955;52.442;13.284;2023-06-22T04:33:11;24.10;60.10
67050;DHT22;53955;52.442;13.284;2023-06-22T04:35:38;24.30;59.10
67050;DHT22;53955;52.442;13.284;2023-06-22T04:38:08;24.40;59.00
67050;DHT22;53955;52.442;13.284;2023-06-22T04:40:34;24.60;59.00
67050;DHT22;53955;52.442;13.284;2023-06-22T04:43:01;25.00;58.10
67050;DHT22;53955;52.442;13.284;2023-06-22T04:45:29;25.00;56.70
67050;DHT22;53955;52.442;13.284;2023-06-22T04:47:55;25.10;56.10
67050;DHT22;53955;52.442;13.284;2023-06-22T04:50:22;25.20;54.90
67050;DHT22;53955;52.442;13.284;2023-06-22T04:52:49;25.20;54.90
67050;DHT22;53955;52.442;13.284;2023-06-22T04:55:18;25.30;53.50
67050;DHT22;53955;52.442;13.284;2023-06-22T04:57:45;25.30;53.90
67050;DHT22;53955;52.442;13.284;2023-06-22T05:00:14;25.40;53.40
67050;DHT22;53955;52.442;13.284;2023-06-22T05:02:43;25.50;51.70
67050;DHT22;53955;52.442;13.284;2023-06-22T05:05:10;25.90;51.80
67050;DHT22;53955;52.442;13.284;2023-06-22T05:07:39;26.00;51.50
67050;DHT22;53955;52.442;13.284;2023-06-22T05:10:08;26.00;50.50
67050;DHT22;53955;52.442;13.284;2023-06-22T05:12:36;26.30;50.40
67050;DHT22;53955;52.442;13.284;2023-06-22T05:15:03;27.10;45.80
67050;DHT22;53955;52.442;13.284;2023-06-22T05:17:30;27.00;44.80
67050;DHT22;53955;52.442;13.284;2023-06-22T05:19:57;26.70;45.60
67050;DHT22;53955;52.442;13.284;2023-06-22T05:22:23;26.70;45.40
67050;DHT22;53955;52.442;13.284;2023-06-22T05:24:50;27.50;42.90
67050;DHT22;53955;52.442;13.284;2023-06-22T05:27:16;28.60;40.70
67050;DHT22;53955;52.442;13.284;2023-06-22T05:29:44;29.10;39.00
67050;DHT22;53955;52.442;13.284;2023-06-22T05:32:11;29.80;37.80
67050;DHT22;53955;52.442;13.284;2023-06-22T05:34:38;29.40;37.90
67050;DHT22;53955;52.442;13.284;2023-06-22T05:37:05;28.30;39.30
67050;DHT22;53955;52.442;13.284;2023-06-22T05:39:32;26.80;44.00
67050;DHT22;53955;52.442;13.284;2023-06-22T05:41:58;26.20;46.70
67050;DHT22;53955;52.442;13.284;2023-06-22T05:44:25;25.80;48.30
67050;DHT22;53955;52.442;13.284;2023-06-22T05:46:53;25.70;49.10
67050;DHT22;53955;52.442;13.284;2023-06-22T05:49:19;26.40;47.30
67050;DHT22;53955;52.442;13.284;2023-06-22T05:51:47;27.20;43.90
67050;DHT22;53955;52.442;13.284;2023-06-22T05:54:13;27.10;43.90
67050;DHT22;53955;52.442;13.284;2023-06-22T05:56:43;26.70;44.80
67050;DHT22;53955;52.442;13.284;2023-06-22T05:59:09;26.30;46.30
67050;DHT22;53955;52.442;13.284;2023-06-22T06:01:36;27.10;44.10
67050;DHT22;53955;52.442;13.284;2023-06-22T06:04:04;27.40;43.70
67050;DHT22;53955;52.442;13.284;2023-06-22T06:06:30;27.50;43.90
67050;DHT22;53955;52.442;13.284;2023-06-22T06:08:57;27.20;43.60
67050;DHT22;53955;52.442;13.284;2023-06-22T06:11:24;27.40;44.00
67050;DHT22;53955;52.442;13.284;2023-06-22T06:13:51;29.30;39.00
67050;DHT22;53955;52.442;13.284;2023-06-22T06:16:18;31.40;34.70
67050;DHT22;53955;52.442;13.284;2023-06-22T06:18:44;32.80;33.30
67050;DHT22;53955;52.442;13.284;2023-06-22T06:21:12;33.20;29.80
67050;DHT22;53955;52.442;13.284;2023-06-22T06:23:39;32.80;30.90
67050;DHT22;53955;52.442;13.284;2023-06-22T06:26:05;32.50;31.70
67050;DHT22;53955;52.442;13.284;2023-06-22T06:28:32;32.20;31.10
67050;DHT22;53955;52.442;13.284;2023-06-22T06:30:59;31.60;32.30
67050;DHT22;53955;52.442;13.284;2023-06-22T06:33:25;31.00;33.40
67050;DHT22;53955;52.442;13.284;2023-06-22T06:35:52;31.00;33.20
67050;DHT22;53955;52.442;13.284;2023-06-22T06:38:22;31.00;33.10
67050;DHT22;53955;52.442;13.284;2023-06-22T06:40:48;30.50;33.60
67050;DHT22;53955;52.442;13.284;2023-06-22T06:43:15;30.20;33.00
67050;DHT22;53955;52.442;13.284;2023-06-22T06:45:41;30.20;35.10
67050;DHT22;53955;52.442;13.284;2023-06-22T06:48:08;30.50;33.50
67050;DHT22;53955;52.442;13.284;2023-06-22T06:50:35;30.70;31.80
67050;DHT22;53955;52.442;13.284;2023-06-22T06:53:02;30.60;31.20
67050;DHT22;53955;52.442;13.284;2023-06-22T06:55:29;30.00;32.70
67050;DHT22;53955;52.442;13.284;2023-06-22T06:57:58;29.60;32.90
67050;DHT22;53955;52.442;13.284;2023-06-22T07:00:25;29.70;33.30
67050;DHT22;53955;52.442;13.284;2023-06-22T07:02:52;29.50;33.60
67050;DHT22;53955;52.442;13.284;2023-06-22T07:05:19;29.30;35.20
67050;DHT22;53955;52.442;13.284;2023-06-22T07:07:45;29.60;31.70
67050;DHT22;53955;52.442;13.284;2023-06-22T07:10:12;29.60;32.20
67050;DHT22;53955;52.442;13.284;2023-06-22T07:12:40;29.90;32.90
67050;DHT22;53955;52.442;13.284;2023-06-22T07:15:08;30.00;32.60
67050;DHT22;53955;52.442;13.284;2023-06-22T07:17:35;30.20;32.40
67050;DHT22;53955;52.442;13.284;2023-06-22T07:20:02;30.30;29.90
67050;DHT22;53955;52.442;13.284;2023-06-22T07:22:34;30.20;30.40
67050;DHT22;53955;52.442;13.284;2023-06-22T07:25:01;30.00;28.70
67050;DHT22;53955;52.442;13.284;2023-06-22T07:27:30;30.30;29.80
67050;DHT22;53955;52.442;13.284;2023-06-22T07:30:02;30.40;28.20
67050;DHT22;53955;52.442;13.284;2023-06-22T07:32:29;30.00;28.20
67050;DHT22;53955;52.442;13.284;2023-06-22T07:34:56;29.70;28.40
67050;DHT22;53955;52.442;13.284;2023-06-22T07:37:22;29.40;28.90
67050;DHT22;53955;52.442;13.284;2023-06-22T07:39:49;29.40;29.50
67050;DHT22;53955;52.442;13.284;2023-06-22T07:42:19;29.70;29.50
67050;DHT22;53955;52.442;13.284;2023-06-22T07:44:45;30.20;30.90
67050;DHT22;53955;52.442;13.284;2023-06-22T07:47:13;30.20;28.90
67050;DHT22;53955;52.442;13.284;2023-06-22T07:49:40;30.10;27.80
67050;DHT22;53955;52.442;13.284;2023-06-22T07:52:07;29.40;27.50
67050;DHT22;53955;52.442;13.284;2023-06-22T07:54:33;29.10;29.70
67050;DHT22;53955;52.442;13.284;2023-06-22T07:57:00;28.80;30.60
67050;DHT22;53955;52.442;13.284;2023-06-22T07:59:26;28.70;31.30
67050;DHT22;53955;52.442;13.284;2023-06-22T08:01:54;28.70;31.00
67050;DHT22;53955;52.442;13.284;2023-06-22T08:04:22;28.60;31.30
67050;DHT22;53955;52.442;13.284;2023-06-22T08:06:48;28.70;31.00
67050;DHT22;53955;52.442;13.284;2023-06-22T08:09:15;28.40;30.00
67050;DHT22;53955;52.442;13.284;2023-06-22T08:11:42;28.40;30.50
67050;DHT22;53955;52.442;13.284;2023-06-22T08:14:08;28.10;30.60
67050;DHT22;53955;52.442;13.284;2023-06-22T08:16:35;28.10;32.00
67050;DHT22;53955;52.442;13.284;2023-06-22T08:19:01;28.30;32.50
67050;DHT22;53955;52.442;13.284;2023-06-22T08:21:29;28.10;29.70
67050;DHT22;53955;52.442;13.284;2023-06-22T08:23:56;28.20;29.10
67050;DHT22;53955;52.442;13.284;2023-06-22T08:26:22;28.30;29.60
67050;DHT22;53955;52.442;13.284;2023-06-22T08:28:50;28.00;28.00
67050;DHT22;53955;52.442;13.284;2023-06-22T08:31:16;27.90;29.20
67050;DHT22;53955;52.442;13.284;2023-06-22T08:33:43;27.80;29.60
67050;DHT22;53955;52.442;13.284;2023-06-22T08:36:11;27.90;29.90
67050;DHT22;53955;52.442;13.284;2023-06-22T08:38:40;27.90;29.40
67050;DHT22;53955;52.442;13.284;2023-06-22T08:41:06;28.00;29.30
67050;DHT22;53955;52.442;13.284;2023-06-22T08:43:33;28.00;29.10
67050;DHT22;53955;52.442;13.284;2023-06-22T08:45:59;28.20;29.20
67050;DHT22;53955;52.442;13.284;2023-06-22T08:48:27;28.30;29.40
67050;DHT22;53955;52.442;13.284;2023-06-22T08:50:54;28.70;30.40
67050;DHT22;53955;52.442;13.284;2023-06-22T08:53:21;28.70;25.90
67050;DHT22;53955;52.442;13.284;2023-06-22T08:55:49;28.90;26.00
67050;DHT22;53955;52.442;13.284;2023-06-22T08:58:16;29.00;25.70
67050;DHT22;53955;52.442;13.284;2023-06-22T09:00:43;29.00;26.70
67050;DHT22;53955;52.442;13.284;2023-06-22T09:03:10;28.70;27.60
67050;DHT22;53955;52.442;13.284;2023-06-22T09:05:37;28.80;28.20
67050;DHT22;53955;52.442;13.284;2023-06-22T09:08:04;28.80;28.30
67050;DHT22;53955;52.442;13.284;2023-06-22T09:10:30;28.80;26.90
67050;DHT22;53955;52.442;13.284;2023-06-22T09:12:58;28.90;28.30
67050;DHT22;53955;52.442;13.284;2023-06-22T09:15:25;29.10;28.80
67050;DHT22;53955;52.442;13.284;2023-06-22T09:17:51;29.40;29.80
67050;DHT22;53955;52.442;13.284;2023-06-22T09:20:19;29.50;26.70
67050;DHT22;53955;52.442;13.284;2023-06-22T09:22:46;29.10;26.20
67050;DHT22;53955;52.442;13.284;2023-06-22T09:25:13;28.80;28.30
67050;DHT22;53955;52.442;13.284;2023-06-22T09:27:39;28.80;28.50
67050;DHT22;53955;52.442;13.284;2023-06-22T09:30:08;28.90;27.70
67050;DHT22;53955;52.442;13.284;2023-06-22T09:32:35;28.70;28.30
67050;DHT22;53955;52.442;13.284;2023-06-22T09:35:04;28.90;28.90
67050;DHT22;53955;52.442;13.284;2023-06-22T09:37:32;29.10;28.10
67050;DHT22;53955;52.442;13.284;2023-06-22T09:39:58;28.90;28.10
67050;DHT22;53955;52.442;13.284;2023-06-22T09:42:25;29.00;29.30
67050;DHT22;53955;52.442;13.284;2023-06-22T09:44:51;29.10;28.80
67050;DHT22;53955;52.442;13.284;2023-06-22T09:47:19;29.40;28.60
67050;DHT22;53955;52.442;13.284;2023-06-22T09:49:46;29.50;30.20
67050;DHT22;53955;52.442;13.284;2023-06-22T09:52:12;29.50;28.50
67050;DHT22;53955;52.442;13.284;2023-06-22T09:54:39;29.40;27.80
67050;DHT22;53955;52.442;13.284;2023-06-22T09:57:06;29.30;28.70
67050;DHT22;53955;52.442;13.284;2023-06-22T09:59:32;29.40;28.60
67050;DHT22;53955;52.442;13.284;2023-06-22T10:01:59;29.70;28.50
67050;DHT22;53955;52.442;13.284;2023-06-22T10:04:27;29.60;28.30
67050;DHT22;53955;52.442;13.284;2023-06-22T10:06:53;29.60;28.90
67050;DHT22;53955;52.442;13.284;2023-06-22T10:09:20;29.70;28.30
67050;DHT22;53955;52.442;13.284;2023-06-22T10:11:47;29.30;29.20
67050;DHT22;53955;52.442;13.284;2023-06-22T10:14:13;29.60;29.80
67050;DHT22;53955;52.442;13.284;2023-06-22T10:16:40;29.40;27.90
67050;DHT22;53955;52.442;13.284;2023-06-22T10:19:06;29.50;29.60
67050;DHT22;53955;52.442;13.284;2023-06-22T10:21:34;29.70;26.90
67050;DHT22;53955;52.442;13.284;2023-06-22T10:24:01;29.70;27.40
67050;DHT22;53955;52.442;13.284;2023-06-22T10:26:31;29.70;28.40
67050;DHT22;53955;52.442;13.284;2023-06-22T10:28:58;29.70;27.00
67050;DHT22;53955;52.442;13.284;2023-06-22T10:31:24;29.60;27.00
67050;DHT22;53955;52.442;13.284;2023-06-22T10:33:51;29.70;27.30
67050;DHT22;53955;52.442;13.284;2023-06-22T10:36:19;30.00;26.40
67050;DHT22;53955;52.442;13.284;2023-06-22T10:38:47;30.00;26.60
67050;DHT22;53955;52.442;13.284;2023-06-22T10:41:13;29.80;26.20
67050;DHT22;53955;52.442;13.284;2023-06-22T10:43:40;29.70;26.50
67050;DHT22;53955;52.442;13.284;2023-06-22T10:46:07;29.60;26.80
67050;DHT22;53955;52.442;13.284;2023-06-22T10:48:33;29.80;26.80
67050;DHT22;53955;52.442;13.284;2023-06-22T10:51:00;30.40;28.50
67050;DHT22;53955;52.442;13.284;2023-06-22T10:53:26;30.20;26.50
67050;DHT22;53955;52.442;13.284;2023-06-22T10:55:54;30.50;26.50
67050;DHT22;53955;52.442;13.284;2023-06-22T10:58:21;30.50;25.10
67050;DHT22;53955;52.442;13.284;2023-06-22T11:00:47;30.50;26.50
67050;DHT22;53955;52.442;13.284;2023-06-22T11:03:14;30.70;27.00
67050;DHT22;53955;52.442;13.284;2023-06-22T11:05:40;30.80;27.40
67050;DHT22;53955;52.442;13.284;2023-06-22T11:08:07;30.90;26.10
67050;DHT22;53955;52.442;13.284;2023-06-22T11:10:34;30.90;25.80
67050;DHT22;53955;52.442;13.284;2023-06-22T11:13:01;31.00;26.30
67050;DHT22;53955;52.442;13.284;2023-06-22T11:15:29;30.90;25.60
67050;DHT22;53955;52.442;13.284;2023-06-22T11:17:56;30.70;25.10
67050;DHT22;53955;52.442;13.284;2023-06-22T11:20:22;30.50;25.70
67050;DHT22;53955;52.442;13.284;2023-06-22T11:22:49;30.60;26.60
67050;DHT22;53955;52.442;13.284;2023-06-22T11:25:15;30.70;26.40
67050;DHT22;53955;52.442;13.284;2023-06-22T11:27:42;30.90;25.70
67050;DHT22;53955;52.442;13.284;2023-06-22T11:30:10;31.00;25.10
67050;DHT22;53955;52.442;13.284;2023-06-22T11:32:37;30.70;24.60
67050;DHT22;53955;52.442;13.284;2023-06-22T11:35:04;30.70;24.30
67050;DHT22;53955;52.442;13.284;2023-06-22T11:37:30;30.50;24.30
67050;DHT22;53955;52.442;13.284;2023-06-22T11:39:57;30.20;24.20
67050;DHT22;53955;52.442;13.284;2023-06-22T11:42:24;30.00;25.10
67050;DHT22;53955;52.442;13.284;2023-06-22T11:44:50;30.30;26.20
67050;DHT22;53955;52.442;13.284;2023-06-22T11:47:18;30.50;25.40
67050;DHT22;53955;52.442;13.284;2023-06-22T11:49:45;30.70;26.10
67050;DHT22;53955;52.442;13.284;2023-06-22T11:52:12;30.80;23.90
67050;DHT22;53955;52.442;13.284;2023-06-22T11:54:38;30.70;24.20
67050;DHT22;53955;52.442;13.284;2023-06-22T11:57:05;30.70;22.90
67050;DHT22;53955;52.442;13.284;2023-06-22T11:59:31;30.80;25.00
67050;DHT22;53955;52.442;13.284;2023-06-22T12:01:58;30.80;23.80
67050;DHT22;53955;52.442;13.284;2023-06-22T12:04:26;30.50;24.50
67050;DHT22;53955;52.442;13.284;2023-06-22T12:06:52;30.40;24.40
67050;DHT22;53955;52.442;13.284;2023-06-22T12:09:19;30.60;25.80
67050;DHT22;53955;52.442;13.284;2023-06-22T12:11:45;30.80;24.10
67050;DHT22;53955;52.442;13.284;2023-06-22T12:14:12;31.00;24.10
67050;DHT22;53955;52.442;13.284;2023-06-22T12:16:38;30.80;23.20
67050;DHT22;53955;52.442;13.284;2023-06-22T12:19:05;30.70;24.40
67050;DHT22;53955;52.442;13.284;2023-06-22T12:21:33;30.60;25.40
67050;DHT22;53955;52.442;13.284;2023-06-22T12:23:59;30.70;23.80
67050;DHT22;53955;52.442;13.284;2023-06-22T12:26:26;30.50;23.70
67050;DHT22;53955;52.442;13.284;2023-06-22T12:28:52;30.20;23.70
67050;DHT22;53955;52.442;13.284;2023-06-22T12:31:19;30.60;24.90
67050;DHT22;53955;52.442;13.284;2023-06-22T12:33:45;30.50;24.00
67050;DHT22;53955;52.442;13.284;2023-06-22T12:36:12;30.40;24.10
67050;DHT22;53955;52.442;13.284;2023-06-22T12:38:40;30.30;23.90
67050;DHT22;53955;52.442;13.284;2023-06-22T12:41:06;30.40;25.20
67050;DHT22;53955;52.442;13.284;2023-06-22T12:43:33;30.30;24.10
67050;DHT22;53955;52.442;13.284;2023-06-22T12:45:59;30.20;24.10
67050;DHT22;53955;52.442;13.284;2023-06-22T12:48:27;30.30;24.30
67050;DHT22;53955;52.442;13.284;2023-06-22T12:50:53;30.70;25.10
67050;DHT22;53955;52.442;13.284;2023-06-22T12:53:20;30.80;23.60
67050;DHT22;53955;52.442;13.284;2023-06-22T12:55:49;30.70;24.80
67050;DHT22;53955;52.442;13.284;2023-06-22T12:58:15;30.50;23.70
67050;DHT22;53955;52.442;13.284;2023-06-22T13:00:42;30.50;25.40
67050;DHT22;53955;52.442;13.284;2023-06-22T13:03:09;30.70;23.70
67050;DHT22;53955;52.442;13.284;2023-06-22T13:05:35;30.80;25.10
67050;DHT22;53955;52.442;13.284;2023-06-22T13:08:02;30.70;25.40
67050;DHT22;53955;52.442;13.284;2023-06-22T13:10:28;30.80;23.40
67050;DHT22;53955;52.442;13.284;2023-06-22T13:12:56;30.80;23.40
67050;DHT22;53955;52.442;13.284;2023-06-22T13:15:26;31.00;24.30
67050;DHT22;53955;52.442;13.284;2023-06-22T13:17:52;30.80;22.80
67050;DHT22;53955;52.442;13.284;2023-06-22T13:20:19;30.60;24.00
67050;DHT22;53955;52.442;13.284;2023-06-22T13:22:45;30.50;24.20
67050;DHT22;53955;52.442;13.284;2023-06-22T13:25:12;30.40;24.50
67050;DHT22;53955;52.442;13.284;2023-06-22T13:27:44;30.60;24.50
67050;DHT22;53955;52.442;13.284;2023-06-22T13:30:12;30.80;24.10
67050;DHT22;53955;52.442;13.284;2023-06-22T13:32:39;30.80;23.30
67050;DHT22;53955;52.442;13.284;2023-06-22T13:35:07;30.60;23.30
67050;DHT22;53955;52.442;13.284;2023-06-22T13:37:34;30.50;23.50
67050;DHT22;53955;52.442;13.284;2023-06-22T13:40:00;30.40;23.70
67050;DHT22;53955;52.442;13.284;2023-06-22T13:42:30;30.40;24.30
67050;DHT22;53955;52.442;13.284;2023-06-22T13:44:57;30.40;24.30
67050;DHT22;53955;52.442;13.284;2023-06-22T13:47:25;30.30;24.40
67050;DHT22;53955;52.442;13.284;2023-06-22T13:49:51;30.50;24.80
67050;DHT22;53955;52.442;13.284;2023-06-22T13:52:18;30.40;24.80
67050;DHT22;53955;52.442;13.284;2023-06-22T13:54:44;30.50;24.00
67050;DHT22;53955;52.442;13.284;2023-06-22T13:57:11;30.50;25.80
67050;DHT22;53955;52.442;13.284;2023-06-22T13:59:37;30.50;24.30
67050;DHT22;53955;52.442;13.284;2023-06-22T14:02:04;30.50;24.50
67050;DHT22;53955;52.442;13.284;2023-06-22T14:04:32;30.40;25.10
67050;DHT22;53955;52.442;13.284;2023-06-22T14:06:59;30.40;24.40
67050;DHT22;53955;52.442;13.284;2023-06-22T14:09:25;30.50;24.40
67050;DHT22;53955;52.442;13.284;2023-06-22T14:11:54;30.60;25.60
67050;DHT22;53955;52.442;13.284;2023-06-22T14:14:21;30.80;26.30
67050;DHT22;53955;52.442;13.284;2023-06-22T14:16:47;30.90;26.10
67050;DHT22;53955;52.442;13.284;2023-06-22T14:19:17;31.00;25.10
67050;DHT22;53955;52.442;13.284;2023-06-22T14:21:45;30.90;24.60
67050;DHT22;53955;52.442;13.284;2023-06-22T14:24:11;31.00;25.80
67050;DHT22;53955;52.442;13.284;2023-06-22T14:26:38;31.20;25.30
67050;DHT22;53955;52.442;13.284;2023-06-22T14:29:05;31.10;23.80
67050;DHT22;53955;52.442;13.284;2023-06-22T14:31:31;30.90;24.30
67050;DHT22;53955;52.442;13.284;2023-06-22T14:33:58;30.80;24.80
67050;DHT22;53955;52.442;13.284;2023-06-22T14:36:25;31.00;25.80
67050;DHT22;53955;52.442;13.284;2023-06-22T14:38:53;30.90;24.40
67050;DHT22;53955;52.442;13.284;2023-06-22T14:41:20;30.90;24.00
67050;DHT22;53955;52.442;13.284;2023-06-22T14:43:47;30.70;23.30
67050;DHT22;53955;52.442;13.284;2023-06-22T14:46:14;30.60;25.00
67050;DHT22;53955;52.442;13.284;2023-06-22T14:48:41;30.70;25.50
67050;DHT22;53955;52.442;13.284;2023-06-22T14:51:08;30.80;25.10
67050;DHT22;53955;52.442;13.284;2023-06-22T14:53:35;30.80;25.30
67050;DHT22;53955;52.442;13.284;2023-06-22T14:56:03;30.80;24.40
67050;DHT22;53955;52.442;13.284;2023-06-22T14:58:30;30.90;24.50
67050;DHT22;53955;52.442;13.284;2023-06-22T15:00:58;30.90;24.90
67050;DHT22;53955;52.442;13.284;2023-06-22T15:03:25;31.10;25.60
67050;DHT22;53955;52.442;13.284;2023-06-22T15:05:54;31.20;24.90
67050;DHT22;53955;52.442;13.284;2023-06-22T15:08:21;31.40;24.80
67050;DHT22;53955;52.442;13.284;2023-06-22T15:10:48;31.50;25.10
67050;DHT22;53955;52.442;13.284;2023-06-22T15:13:16;31.30;24.40
67050;DHT22;53955;52.442;13.284;2023-06-22T15:15:43;31.20;24.50